sensor_id;sensor_type;location;lat;lon;timestamp;P1;durP1;ratioP1;P2;durP2;ratioP2
7359;SDS011;3720;48.274;7.796;2023-08-24T00:00:00;5.38;;;4.63;;
7359;SDS011;3720;48.274;7.796;2023-08-24T00:02:34;7.40;;;5.32;;
7359;SDS011;3720;48.274;7.796;2023-08-24T00:05:07;6.72;;;4.82;;
7359;SDS011;3720;48.274;7.796;2023-08-24T00:07:39;6.90;;;5.20;;
7359;SDS011;3720;48.274;7.796;2023-08-24T00:10:11;7.18;;;5.00;;
7359;SDS011;3720;48.274;7.796;2023-08-24T00:12:43;6.65;;;4.88;;
7359;SDS011;3720;48.274;7.796;2023-08-24T00:15:15;6.28;;;4.82;;
7359;SDS011;3720;48.274;7.796;2023-08-24T00:17:48;6.82;;;5.15;;
7359;SDS011;3720;48.274;7.796;2023-08-24T00:20:21;5.90;;;5.10;;
7359;SDS011;3720;48.274;7.796;2023-08-24T00:22:52;6.57;;;5.05;;
7359;SDS011;3720;48.274;7.796;2023-08-24T00:25:24;5.80;;;4.95;;
7359;SDS011;3720;48.274;7.796;2023-08-24T00:27:56;6.40;;;4.53;;
7359;SDS011;3720;48.274;7.796;2023-08-24T00:30:28;5.78;;;5.18;;
7359;SDS011;3720;48.274;7.796;2023-08-24T00:33:02;7.97;;;5.28;;
7359;SDS011;3720;48.274;7.796;2023-08-24T00:35:34;5.72;;;5.13;;
7359;SDS011;3720;48.274;7.796;2023-08-24T00:38:06;9.65;;;5.55;;
7359;SDS011;3720;48.274;7.796;2023-08-24T00:40:38;6.20;;;5.40;;
7359;SDS011;3720;48.274;7.796;2023-08-24T00:43:13;6.05;;;5.20;;
7359;SDS011;3720;48.274;7.796;2023-08-24T00:45:45;7.68;;;5.50;;
7359;SDS011;3720;48.274;7.796;2023-08-24T00:48:18;7.43;;;5.53;;
7359;SDS011;3720;48.274;7.796;2023-08-24T00:50:55;6.18;;;5.38;;
7359;SDS011;3720;48.274;7.796;2023-08-24T00:53:30;5.97;;;5.15;;
7359;SDS011;3720;48.274;7.796;2023-08-24T00:56:03;6.13;;;5.53;;
7359;SDS011;3720;48.274;7.796;2023-08-24T00:58:35;9.15;;;5.22;;
7359;SDS011;3720;48.274;7.796;2023-08-24T01:01:09;6.13;;;5.20;;
7359;SDS011;3720;48.274;7.796;2023-08-24T01:03:42;7.68;;;5.47;;
7359;SDS011;3720;48.274;7.796;2023-08-24T01:06:14;8.45;;;5.32;;
7359;SDS011;3720;48.274;7.796;2023-08-24T01:08:46;6.70;;;5.90;;
7359;SDS011;3720;48.274;7.796;2023-08-24T01:11:19;7.32;;;5.53;;
7359;SDS011;3720;48.274;7.796;2023-08-24T01:13:59;7.60;;;5.38;;
7359;SDS011;3720;48.274;7.796;2023-08-24T01:16:37;5.93;;;5.00;;
7359;SDS011;3720;48.274;7.796;2023-08-24T01:19:16;6.30;;;5.28;;
7359;SDS011;3720;48.274;7.796;2023-08-24T01:22:17;7.05;;;5.50;;
7359;SDS011;3720;48.274;7.796;2023-08-24T01:24:58;6.38;;;5.40;;
7359;SDS011;3720;48.274;7.796;2023-08-24T01:27:39;8.77;;;5.50;;
7359;SDS011;3720;48.274;7.796;2023-08-24T01:30:12;8.10;;;5.50;;
7359;SDS011;3720;48.274;7.796;2023-08-24T01:32:45;6.13;;;5.50;;
7359;SDS011;3720;48.274;7.796;2023-08-24T01:35:17;6.28;;;5.28;;
7359;SDS011;3720;48.274;7.796;2023-08-24T01:37:48;6.38;;;4.97;;
7359;SDS011;3720;48.274;7.796;2023-08-24T01:40:23;5.10;;;4.60;;
7359;SDS011;3720;48.274;7.796;2023-08-24T01:43:01;7.70;;;5.22;;
7359;SDS011;3720;48.274;7.796;2023-08-24T01:45:35;6.63;;;5.07;;
7359;SDS011;3720;48.274;7.796;2023-08-24T01:48:07;5.82;;;4.80;;
7359;SDS011;3720;48.274;7.796;2023-08-24T01:50:41;6.57;;;5.28;;
7359;SDS011;3720;48.274;7.796;2023-08-24T01:53:13;6.95;;;5.38;;
7359;SDS011;3720;48.274;7.796;2023-08-24T01:55:45;7.38;;;5.60;;
7359;SDS011;3720;48.274;7.796;2023-08-24T01:58:19;5.97;;;4.97;;
7359;SDS011;3720;48.274;7.796;2023-08-24T02:00:51;7.60;;;5.10;;
7359;SDS011;3720;48.274;7.796;2023-08-24T02:03:23;6.32;;;5.10;;
7359;SDS011;3720;48.274;7.796;2023-08-24T02:05:55;5.82;;;5.22;;
7359;SDS011;3720;48.274;7.796;2023-08-24T02:08:27;7.00;;;5.40;;
7359;SDS011;3720;48.274;7.796;2023-08-24T02:11:00;7.43;;;5.80;;
7359;SDS011;3720;48.274;7.796;2023-08-24T02:13:33;8.30;;;5.47;;
7359;SDS011;3720;48.274;7.796;2023-08-24T02:16:05;6.90;;;5.47;;
7359;SDS011;3720;48.274;7.796;2023-08-24T02:18:39;6.55;;;5.78;;
7359;SDS011;3720;48.274;7.796;2023-08-24T02:21:12;7.65;;;5.70;;
7359;SDS011;3720;48.274;7.796;2023-08-24T02:23:45;8.50;;;5.90;;
7359;SDS011;3720;48.274;7.796;2023-08-24T02:26:17;6.60;;;5.88;;
7359;SDS011;3720;48.274;7.796;2023-08-24T02:28:52;8.57;;;6.15;;
7359;SDS011;3720;48.274;7.796;2023-08-24T02:31:23;6.40;;;5.80;;
7359;SDS011;3720;48.274;7.796;2023-08-24T02:33:55;6.78;;;5.90;;
7359;SDS011;3720;48.274;7.796;2023-08-24T02:36:27;8.38;;;6.38;;
7359;SDS011;3720;48.274;7.796;2023-08-24T02:39:03;9.90;;;6.50;;
7359;SDS011;3720;48.274;7.796;2023-08-24T02:41:35;9.88;;;6.43;;
7359;SDS011;3720;48.274;7.796;2023-08-24T02:44:08;7.50;;;6.05;;
7359;SDS011;3720;48.274;7.796;2023-08-24T02:46:40;9.00;;;6.40;;
7359;SDS011;3720;48.274;7.796;2023-08-24T02:49:15;9.40;;;6.90;;
7359;SDS011;3720;48.274;7.796;2023-08-24T02:51:47;10.32;;;7.13;;
7359;SDS011;3720;48.274;7.796;2023-08-24T02:54:19;8.73;;;6.90;;
7359;SDS011;3720;48.274;7.796;2023-08-24T02:56:51;8.95;;;6.90;;
7359;SDS011;3720;48.274;7.796;2023-08-24T02:59:24;9.13;;;6.75;;
7359;SDS011;3720;48.274;7.796;2023-08-24T03:01:56;7.60;;;6.30;;
7359;SDS011;3720;48.274;7.796;2023-08-24T03:04:28;9.23;;;6.97;;
7359;SDS011;3720;48.274;7.796;2023-08-24T03:07:00;7.78;;;6.72;;
7359;SDS011;3720;48.274;7.796;2023-08-24T03:09:33;7.43;;;6.20;;
7359;SDS011;3720;48.274;7.796;2023-08-24T03:12:05;8.45;;;6.68;;
7359;SDS011;3720;48.274;7.796;2023-08-24T03:14:39;9.18;;;6.43;;
7359;SDS011;3720;48.274;7.796;2023-08-24T03:17:11;9.27;;;6.18;;
7359;SDS011;3720;48.274;7.796;2023-08-24T03:19:42;9.27;;;6.20;;
7359;SDS011;3720;48.274;7.796;2023-08-24T03:22:14;8.02;;;6.53;;
7359;SDS011;3720;48.274;7.796;2023-08-24T03:24:47;7.82;;;5.93;;
7359;SDS011;3720;48.274;7.796;2023-08-24T03:27:19;7.95;;;6.32;;
7359;SDS011;3720;48.274;7.796;2023-08-24T03:29:53;7.68;;;6.20;;
7359;SDS011;3720;48.274;7.796;2023-08-24T03:32:25;7.72;;;6.50;;
7359;SDS011;3720;48.274;7.796;2023-08-24T03:34:58;11.15;;;6.85;;
7359;SDS011;3720;48.274;7.796;2023-08-24T03:37:30;11.80;;;7.15;;
7359;SDS011;3720;48.274;7.796;2023-08-24T03:40:02;8.65;;;6.55;;
7359;SDS011;3720;48.274;7.796;2023-08-24T03:42:36;14.20;;;7.00;;
7359;SDS011;3720;48.274;7.796;2023-08-24T03:45:10;11.27;;;7.25;;
7359;SDS011;3720;48.274;7.796;2023-08-24T03:47:42;7.72;;;6.70;;
7359;SDS011;3720;48.274;7.796;2023-08-24T03:50:14;10.00;;;6.78;;
7359;SDS011;3720;48.274;7.796;2023-08-24T03:52:47;8.30;;;6.18;;
7359;SDS011;3720;48.274;7.796;2023-08-24T03:55:19;9.18;;;6.32;;
7359;SDS011;3720;48.274;7.796;2023-08-24T03:57:51;6.85;;;6.10;;
7359;SDS011;3720;48.274;7.796;2023-08-24T04:00:25;10.27;;;6.65;;
7359;SDS011;3720;48.274;7.796;2023-08-24T04:02:57;8.85;;;6.38;;
7359;SDS011;3720;48.274;7.796;2023-08-24T04:05:29;8.88;;;6.63;;
7359;SDS011;3720;48.274;7.796;2023-08-24T04:08:02;8.95;;;6.47;;
7359;SDS011;3720;48.274;7.796;2023-08-24T04:10:34;7.57;;;6.78;;
7359;SDS011;3720;48.274;7.796;2023-08-24T04:13:06;7.57;;;6.30;;
7359;SDS011;3720;48.274;7.796;2023-08-24T04:15:39;17.38;;;7.32;;
7359;SDS011;3720;48.274;7.796;2023-08-24T04:18:11;9.38;;;6.43;;
7359;SDS011;3720;48.274;7.796;2023-08-24T04:20:43;10.32;;;6.68;;
7359;SDS011;3720;48.274;7.796;2023-08-24T04:23:15;10.10;;;7.20;;
7359;SDS011;3720;48.274;7.796;2023-08-24T04:25:47;8.05;;;6.72;;
7359;SDS011;3720;48.274;7.796;2023-08-24T04:28:19;10.10;;;6.60;;
7359;SDS011;3720;48.274;7.796;2023-08-24T04:30:54;8.98;;;6.60;;
7359;SDS011;3720;48.274;7.796;2023-08-24T04:33:28;9.82;;;7.00;;
7359;SDS011;3720;48.274;7.796;2023-08-24T04:36:01;13.75;;;7.75;;
7359;SDS011;3720;48.274;7.796;2023-08-24T04:38:33;11.30;;;6.78;;
7359;SDS011;3720;48.274;7.796;2023-08-24T04:41:07;9.88;;;7.22;;
7359;SDS011;3720;48.274;7.796;2023-08-24T04:43:42;7.80;;;7.00;;
7359;SDS011;3720;48.274;7.796;2023-08-24T04:46:15;8.10;;;6.43;;
7359;SDS011;3720;48.274;7.796;2023-08-24T04:48:47;8.25;;;6.90;;
7359;SDS011;3720;48.274;7.796;2023-08-24T04:51:19;7.65;;;6.78;;
7359;SDS011;3720;48.274;7.796;2023-08-24T04:53:51;10.00;;;6.93;;
7359;SDS011;3720;48.274;7.796;2023-08-24T04:56:23;8.68;;;6.75;;
7359;SDS011;3720;48.274;7.796;2023-08-24T04:58:55;9.02;;;7.03;;
7359;SDS011;3720;48.274;7.796;2023-08-24T05:01:29;9.98;;;7.30;;
7359;SDS011;3720;48.274;7.796;2023-08-24T05:04:01;9.98;;;7.28;;
7359;SDS011;3720;48.274;7.796;2023-08-24T05:06:33;9.90;;;7.03;;
7359;SDS011;3720;48.274;7.796;2023-08-24T05:09:05;7.22;;;6.53;;
7359;SDS011;3720;48.274;7.796;2023-08-24T05:11:38;10.15;;;6.72;;
7359;SDS011;3720;48.274;7.796;2023-08-24T05:14:10;13.43;;;6.93;;
7359;SDS011;3720;48.274;7.796;2023-08-24T05:16:45;7.78;;;6.40;;
7359;SDS011;3720;48.274;7.796;2023-08-24T05:19:17;18.45;;;7.40;;
7359;SDS011;3720;48.274;7.796;2023-08-24T05:21:49;8.73;;;6.72;;
7359;SDS011;3720;48.274;7.796;2023-08-24T05:24:21;7.57;;;6.80;;
7359;SDS011;3720;48.274;7.796;2023-08-24T05:26:53;8.70;;;7.07;;
7359;SDS011;3720;48.274;7.796;2023-08-24T05:29:25;10.68;;;7.18;;
7359;SDS011;3720;48.274;7.796;2023-08-24T05:31:59;7.72;;;6.93;;
7359;SDS011;3720;48.274;7.796;2023-08-24T05:34:31;7.88;;;7.00;;
7359;SDS011;3720;48.274;7.796;2023-08-24T05:37:03;8.38;;;6.80;;
7359;SDS011;3720;48.274;7.796;2023-08-24T05:39:35;9.95;;;7.30;;
7359;SDS011;3720;48.274;7.796;2023-08-24T05:42:07;7.60;;;6.75;;
7359;SDS011;3720;48.274;7.796;2023-08-24T05:44:40;8.85;;;7.22;;
7359;SDS011;3720;48.274;7.796;2023-08-24T05:47:13;8.05;;;7.00;;
7359;SDS011;3720;48.274;7.796;2023-08-24T05:49:45;10.50;;;7.32;;
7359;SDS011;3720;48.274;7.796;2023-08-24T05:52:17;8.48;;;7.10;;
7359;SDS011;3720;48.274;7.796;2023-08-24T05:54:49;7.80;;;6.95;;
7359;SDS011;3720;48.274;7.796;2023-08-24T05:57:20;9.93;;;7.25;;
7359;SDS011;3720;48.274;7.796;2023-08-24T05:59:52;7.40;;;6.65;;
7359;SDS011;3720;48.274;7.796;2023-08-24T06:02:26;9.10;;;7.20;;
7359;SDS011;3720;48.274;7.796;2023-08-24T06:04:58;9.30;;;7.10;;
7359;SDS011;3720;48.274;7.796;2023-08-24T06:07:30;10.55;;;7.47;;
7359;SDS011;3720;48.274;7.796;2023-08-24T06:10:02;8.73;;;7.82;;
7359;SDS011;3720;48.274;7.796;2023-08-24T06:12:34;12.63;;;8.05;;
7359;SDS011;3720;48.274;7.796;2023-08-24T06:15:06;10.10;;;7.95;;
7359;SDS011;3720;48.274;7.796;2023-08-24T06:17:42;8.60;;;7.20;;
7359;SDS011;3720;48.274;7.796;2023-08-24T06:20:14;10.00;;;7.05;;
7359;SDS011;3720;48.274;7.796;2023-08-24T06:22:46;11.73;;;7.88;;
7359;SDS011;3720;48.274;7.796;2023-08-24T06:25:18;14.15;;;8.43;;
7359;SDS011;3720;48.274;7.796;2023-08-24T06:27:50;11.57;;;7.88;;
7359;SDS011;3720;48.274;7.796;2023-08-24T06:30:22;13.60;;;8.00;;
7359;SDS011;3720;48.274;7.796;2023-08-24T06:32:55;9.80;;;8.00;;
7359;SDS011;3720;48.274;7.796;2023-08-24T06:35:27;10.13;;;7.10;;
7359;SDS011;3720;48.274;7.796;2023-08-24T06:37:59;11.68;;;8.70;;
7359;SDS011;3720;48.274;7.796;2023-08-24T06:40:31;9.80;;;7.72;;
7359;SDS011;3720;48.274;7.796;2023-08-24T06:43:03;11.65;;;9.23;;
7359;SDS011;3720;48.274;7.796;2023-08-24T06:45:35;10.40;;;9.10;;
7359;SDS011;3720;48.274;7.796;2023-08-24T06:48:08;9.82;;;8.10;;
7359;SDS011;3720;48.274;7.796;2023-08-24T06:50:40;13.50;;;9.20;;
7359;SDS011;3720;48.274;7.796;2023-08-24T06:53:12;12.60;;;9.10;;
7359;SDS011;3720;48.274;7.796;2023-08-24T06:55:44;11.32;;;9.23;;
7359;SDS011;3720;48.274;7.796;2023-08-24T06:58:16;9.95;;;8.38;;
7359;SDS011;3720;48.274;7.796;2023-08-24T07:00:48;11.25;;;9.60;;
7359;SDS011;3720;48.274;7.796;2023-08-24T07:03:23;9.90;;;8.77;;
7359;SDS011;3720;48.274;7.796;2023-08-24T07:05:55;9.00;;;8.10;;
7359;SDS011;3720;48.274;7.796;2023-08-24T07:08:27;11.77;;;9.60;;
7359;SDS011;3720;48.274;7.796;2023-08-24T07:10:59;12.77;;;8.68;;
7359;SDS011;3720;48.274;7.796;2023-08-24T07:13:31;13.65;;;8.60;;
7359;SDS011;3720;48.274;7.796;2023-08-24T07:16:04;11.13;;;7.90;;
7359;SDS011;3720;48.274;7.796;2023-08-24T07:18:38;12.38;;;8.43;;
7359;SDS011;3720;48.274;7.796;2023-08-24T07:21:09;13.35;;;9.10;;
7359;SDS011;3720;48.274;7.796;2023-08-24T07:23:41;11.32;;;8.38;;
7359;SDS011;3720;48.274;7.796;2023-08-24T07:26:13;10.52;;;8.40;;
7359;SDS011;3720;48.274;7.796;2023-08-24T07:28:45;9.32;;;7.32;;
7359;SDS011;3720;48.274;7.796;2023-08-24T07:31:17;9.77;;;7.80;;
7359;SDS011;3720;48.274;7.796;2023-08-24T07:33:51;9.65;;;8.02;;
7359;SDS011;3720;48.274;7.796;2023-08-24T07:36:23;12.10;;;8.73;;
7359;SDS011;3720;48.274;7.796;2023-08-24T07:38:54;12.30;;;8.02;;
7359;SDS011;3720;48.274;7.796;2023-08-24T07:41:27;11.73;;;8.30;;
7359;SDS011;3720;48.274;7.796;2023-08-24T07:43:58;10.98;;;7.80;;
7359;SDS011;3720;48.274;7.796;2023-08-24T07:46:30;12.82;;;8.18;;
7359;SDS011;3720;48.274;7.796;2023-08-24T07:49:04;9.18;;;7.00;;
7359;SDS011;3720;48.274;7.796;2023-08-24T07:51:36;10.68;;;8.15;;
7359;SDS011;3720;48.274;7.796;2023-08-24T07:54:08;10.77;;;7.93;;
7359;SDS011;3720;48.274;7.796;2023-08-24T07:56:40;8.50;;;7.68;;
7359;SDS011;3720;48.274;7.796;2023-08-24T07:59:12;9.63;;;8.10;;
7359;SDS011;3720;48.274;7.796;2023-08-24T08:01:44;11.77;;;7.65;;
7359;SDS011;3720;48.274;7.796;2023-08-24T08:04:17;9.93;;;7.25;;
7359;SDS011;3720;48.274;7.796;2023-08-24T08:06:49;8.98;;;7.05;;
7359;SDS011;3720;48.274;7.796;2023-08-24T08:09:21;8.30;;;7.28;;
7359;SDS011;3720;48.274;7.796;2023-08-24T08:11:53;8.70;;;7.78;;
7359;SDS011;3720;48.274;7.796;2023-08-24T08:14:25;10.40;;;7.15;;
7359;SDS011;3720;48.274;7.796;2023-08-24T08:16:57;10.05;;;7.05;;
7359;SDS011;3720;48.274;7.796;2023-08-24T08:19:31;8.30;;;7.50;;
7359;SDS011;3720;48.274;7.796;2023-08-24T08:22:05;10.43;;;7.00;;
7359;SDS011;3720;48.274;7.796;2023-08-24T08:24:37;8.35;;;7.40;;
7359;SDS011;3720;48.274;7.796;2023-08-24T08:27:09;11.00;;;7.30;;
7359;SDS011;3720;48.274;7.796;2023-08-24T08:29:41;8.90;;;6.90;;
7359;SDS011;3720;48.274;7.796;2023-08-24T08:32:13;9.57;;;7.85;;
7359;SDS011;3720;48.274;7.796;2023-08-24T08:34:46;12.02;;;7.50;;
7359;SDS011;3720;48.274;7.796;2023-08-24T08:37:18;11.55;;;7.50;;
7359;SDS011;3720;48.274;7.796;2023-08-24T08:39:50;8.40;;;6.50;;
7359;SDS011;3720;48.274;7.796;2023-08-24T08:42:22;8.52;;;6.70;;
7359;SDS011;3720;48.274;7.796;2023-08-24T08:44:54;8.77;;;7.00;;
7359;SDS011;3720;48.274;7.796;2023-08-24T08:47:26;11.23;;;6.85;;
7359;SDS011;3720;48.274;7.796;2023-08-24T08:49:59;8.88;;;6.53;;
7359;SDS011;3720;48.274;7.796;2023-08-24T08:52:33;10.75;;;6.88;;
7359;SDS011;3720;48.274;7.796;2023-08-24T08:55:05;10.23;;;7.50;;
7359;SDS011;3720;48.274;7.796;2023-08-24T08:57:40;8.90;;;6.72;;
7359;SDS011;3720;48.274;7.796;2023-08-24T09:00:13;7.40;;;6.25;;
7359;SDS011;3720;48.274;7.796;2023-08-24T09:02:47;10.63;;;6.68;;
7359;SDS011;3720;48.274;7.796;2023-08-24T09:05:22;12.65;;;6.82;;
7359;SDS011;3720;48.274;7.796;2023-08-24T09:07:56;9.48;;;6.30;;
7359;SDS011;3720;48.274;7.796;2023-08-24T09:10:29;11.52;;;6.68;;
7359;SDS011;3720;48.274;7.796;2023-08-24T09:13:01;9.27;;;6.70;;
7359;SDS011;3720;48.274;7.796;2023-08-24T09:15:34;8.32;;;5.90;;
7359;SDS011;3720;48.274;7.796;2023-08-24T09:18:06;10.07;;;6.65;;
7359;SDS011;3720;48.274;7.796;2023-08-24T09:20:40;7.78;;;6.28;;
7359;SDS011;3720;48.274;7.796;2023-08-24T09:23:17;9.68;;;6.25;;
7359;SDS011;3720;48.274;7.796;2023-08-24T09:25:50;9.25;;;6.07;;
7359;SDS011;3720;48.274;7.796;2023-08-24T09:28:22;9.50;;;5.97;;
7359;SDS011;3720;48.274;7.796;2023-08-24T09:30:55;9.07;;;6.13;;
7359;SDS011;3720;48.274;7.796;2023-08-24T09:33:27;9.57;;;5.55;;
7359;SDS011;3720;48.274;7.796;2023-08-24T09:36:01;12.10;;;6.20;;
7359;SDS011;3720;48.274;7.796;2023-08-24T09:38:37;11.30;;;5.85;;
7359;SDS011;3720;48.274;7.796;2023-08-24T09:41:17;8.00;;;5.82;;
7359;SDS011;3720;48.274;7.796;2023-08-24T09:43:49;8.13;;;5.53;;
7359;SDS011;3720;48.274;7.796;2023-08-24T09:46:21;7.93;;;5.68;;
7359;SDS011;3720;48.274;7.796;2023-08-24T09:48:55;7.45;;;5.93;;
7359;SDS011;3720;48.274;7.796;2023-08-24T09:51:32;9.30;;;5.80;;
7359;SDS011;3720;48.274;7.796;2023-08-24T09:54:05;10.80;;;5.85;;
7359;SDS011;3720;48.274;7.796;2023-08-24T09:56:39;11.63;;;5.63;;
7359;SDS011;3720;48.274;7.796;2023-08-24T09:59:12;9.35;;;5.82;;
7359;SDS011;3720;48.274;7.796;2023-08-24T10:01:48;7.30;;;5.82;;
7359;SDS011;3720;48.274;7.796;2023-08-24T10:04:22;9.77;;;5.90;;
7359;SDS011;3720;48.274;7.796;2023-08-24T10:06:58;10.13;;;5.85;;
7359;SDS011;3720;48.274;7.796;2023-08-24T10:09:35;9.52;;;6.18;;
7359;SDS011;3720;48.274;7.796;2023-08-24T10:12:09;8.30;;;6.50;;
7359;SDS011;3720;48.274;7.796;2023-08-24T10:14:59;11.65;;;6.20;;
7359;SDS011;3720;48.274;7.796;2023-08-24T10:17:32;9.43;;;6.30;;
7359;SDS011;3720;48.274;7.796;2023-08-24T10:20:06;9.43;;;5.90;;
7359;SDS011;3720;48.274;7.796;2023-08-24T10:22:40;13.55;;;6.32;;
7359;SDS011;3720;48.274;7.796;2023-08-24T10:25:13;10.05;;;6.75;;
7359;SDS011;3720;48.274;7.796;2023-08-24T10:27:48;9.23;;;6.05;;
7359;SDS011;3720;48.274;7.796;2023-08-24T10:30:24;10.40;;;6.83;;
7359;SDS011;3720;48.274;7.796;2023-08-24T10:32:56;9.80;;;6.38;;
7359;SDS011;3720;48.274;7.796;2023-08-24T10:35:29;8.50;;;7.03;;
7359;SDS011;3720;48.274;7.796;2023-08-24T10:38:02;10.25;;;7.00;;
7359;SDS011;3720;48.274;7.796;2023-08-24T10:40:35;7.72;;;6.25;;
7359;SDS011;3720;48.274;7.796;2023-08-24T10:43:09;9.00;;;5.90;;
7359;SDS011;3720;48.274;7.796;2023-08-24T10:45:53;10.90;;;5.95;;
7359;SDS011;3720;48.274;7.796;2023-08-24T10:48:27;8.07;;;5.68;;
7359;SDS011;3720;48.274;7.796;2023-08-24T10:51:20;7.57;;;5.88;;
7359;SDS011;3720;48.274;7.796;2023-08-24T10:53:57;9.13;;;5.75;;
7359;SDS011;3720;48.274;7.796;2023-08-24T10:56:31;12.02;;;6.47;;
7359;SDS011;3720;48.274;7.796;2023-08-24T10:59:10;8.27;;;6.55;;
7359;SDS011;3720;48.274;7.796;2023-08-24T11:01:54;7.90;;;6.18;;
7359;SDS011;3720;48.274;7.796;2023-08-24T11:04:28;9.70;;;6.30;;
7359;SDS011;3720;48.274;7.796;2023-08-24T11:07:00;6.70;;;6.10;;
7359;SDS011;3720;48.274;7.796;2023-08-24T11:09:45;8.43;;;6.55;;
7359;SDS011;3720;48.274;7.796;2023-08-24T11:12:18;9.52;;;5.88;;
7359;SDS011;3720;48.274;7.796;2023-08-24T11:14:51;6.93;;;6.05;;
7359;SDS011;3720;48.274;7.796;2023-08-24T11:17:24;10.05;;;5.82;;
7359;SDS011;3720;48.274;7.796;2023-08-24T11:20:02;9.20;;;5.88;;
7359;SDS011;3720;48.274;7.796;2023-08-24T11:22:35;7.28;;;5.50;;
7359;SDS011;3720;48.274;7.796;2023-08-24T11:25:12;6.43;;;5.75;;
7359;SDS011;3720;48.274;7.796;2023-08-24T11:27:44;10.23;;;5.75;;
7359;SDS011;3720;48.274;7.796;2023-08-24T11:30:17;7.35;;;5.22;;
7359;SDS011;3720;48.274;7.796;2023-08-24T11:32:51;8.90;;;5.50;;
7359;SDS011;3720;48.274;7.796;2023-08-24T11:35:23;8.38;;;5.57;;
7359;SDS011;3720;48.274;7.796;2023-08-24T11:37:56;7.50;;;5.95;;
7359;SDS011;3720;48.274;7.796;2023-08-24T11:40:30;7.53;;;5.90;;
7359;SDS011;3720;48.274;7.796;2023-08-24T11:43:02;7.07;;;6.38;;
7359;SDS011;3720;48.274;7.796;2023-08-24T11:45:35;8.70;;;6.68;;
7359;SDS011;3720;48.274;7.796;2023-08-24T11:50:42;7.68;;;5.85;;
7359;SDS011;3720;48.274;7.796;2023-08-24T11:53:16;10.70;;;6.22;;
7359;SDS011;3720;48.274;7.796;2023-08-24T11:55:49;13.57;;;6.43;;
7359;SDS011;3720;48.274;7.796;2023-08-24T11:58:23;11.07;;;6.45;;
7359;SDS011;3720;48.274;7.796;2023-08-24T12:00:55;7.82;;;5.88;;
7359;SDS011;3720;48.274;7.796;2023-08-24T12:03:27;7.15;;;5.57;;
7359;SDS011;3720;48.274;7.796;2023-08-24T12:06:00;7.22;;;5.50;;
7359;SDS011;3720;48.274;7.796;2023-08-24T12:08:36;8.15;;;5.78;;
7359;SDS011;3720;48.274;7.796;2023-08-24T12:11:14;7.17;;;5.43;;
7359;SDS011;3720;48.274;7.796;2023-08-24T12:13:48;7.05;;;5.60;;
7359;SDS011;3720;48.274;7.796;2023-08-24T12:16:21;8.27;;;5.60;;
7359;SDS011;3720;48.274;7.796;2023-08-24T12:18:54;7.60;;;6.10;;
7359;SDS011;3720;48.274;7.796;2023-08-24T12:21:29;7.83;;;5.77;;
7359;SDS011;3720;48.274;7.796;2023-08-24T12:24:02;7.63;;;6.00;;
7359;SDS011;3720;48.274;7.796;2023-08-24T12:26:37;10.23;;;5.90;;
7359;SDS011;3720;48.274;7.796;2023-08-24T12:29:09;6.28;;;5.68;;
7359;SDS011;3720;48.274;7.796;2023-08-24T12:31:42;10.20;;;6.22;;
7359;SDS011;3720;48.274;7.796;2023-08-24T12:34:15;7.75;;;5.60;;
7359;SDS011;3720;48.274;7.796;2023-08-24T12:36:47;8.45;;;5.68;;
7359;SDS011;3720;48.274;7.796;2023-08-24T12:39:19;7.70;;;5.65;;
7359;SDS011;3720;48.274;7.796;2023-08-24T12:41:52;8.18;;;5.57;;
7359;SDS011;3720;48.274;7.796;2023-08-24T12:44:24;9.02;;;5.60;;
7359;SDS011;3720;48.274;7.796;2023-08-24T12:46:56;7.90;;;5.88;;
7359;SDS011;3720;48.274;7.796;2023-08-24T12:49:28;9.15;;;5.60;;
7359;SDS011;3720;48.274;7.796;2023-08-24T12:52:00;8.35;;;5.22;;
7359;SDS011;3720;48.274;7.796;2023-08-24T12:54:33;8.57;;;5.45;;
7359;SDS011;3720;48.274;7.796;2023-08-24T12:57:06;5.80;;;5.03;;
7359;SDS011;3720;48.274;7.796;2023-08-24T12:59:38;7.32;;;5.45;;
7359;SDS011;3720;48.274;7.796;2023-08-24T13:02:10;8.07;;;4.45;;
7359;SDS011;3720;48.274;7.796;2023-08-24T13:04:42;6.95;;;4.30;;
7359;SDS011;3720;48.274;7.796;2023-08-24T13:07:14;10.55;;;4.25;;
7359;SDS011;3720;48.274;7.796;2023-08-24T13:09:46;7.15;;;4.25;;
7359;SDS011;3720;48.274;7.796;2023-08-24T13:12:19;7.65;;;4.05;;
7359;SDS011;3720;48.274;7.796;2023-08-24T13:14:51;6.05;;;4.60;;
7359;SDS011;3720;48.274;7.796;2023-08-24T13:17:23;6.57;;;4.40;;
7359;SDS011;3720;48.274;7.796;2023-08-24T13:19:55;8.75;;;4.60;;
7359;SDS011;3720;48.274;7.796;2023-08-24T13:22:27;9.45;;;4.60;;
7359;SDS011;3720;48.274;7.796;2023-08-24T13:24:59;8.25;;;4.50;;
7359;SDS011;3720;48.274;7.796;2023-08-24T13:27:32;6.50;;;4.53;;
7359;SDS011;3720;48.274;7.796;2023-08-24T13:30:05;7.78;;;4.57;;
7359;SDS011;3720;48.274;7.796;2023-08-24T13:32:37;8.52;;;4.70;;
7359;SDS011;3720;48.274;7.796;2023-08-24T13:35:10;6.93;;;4.50;;
7359;SDS011;3720;48.274;7.796;2023-08-24T13:37:42;7.95;;;4.57;;
7359;SDS011;3720;48.274;7.796;2023-08-24T13:40:14;10.88;;;4.60;;
7359;SDS011;3720;48.274;7.796;2023-08-24T13:42:48;6.95;;;4.68;;
7359;SDS011;3720;48.274;7.796;2023-08-24T13:45:20;4.95;;;4.10;;
7359;SDS011;3720;48.274;7.796;2023-08-24T13:47:52;10.70;;;4.57;;
7359;SDS011;3720;48.274;7.796;2023-08-24T13:50:24;12.95;;;4.60;;
7359;SDS011;3720;48.274;7.796;2023-08-24T13:52:56;7.60;;;4.35;;
7359;SDS011;3720;48.274;7.796;2023-08-24T13:55:27;9.85;;;4.75;;
7359;SDS011;3720;48.274;7.796;2023-08-24T13:58:02;7.97;;;4.35;;
7359;SDS011;3720;48.274;7.796;2023-08-24T14:00:34;6.32;;;4.78;;
7359;SDS011;3720;48.274;7.796;2023-08-24T14:03:06;8.52;;;5.28;;
7359;SDS011;3720;48.274;7.796;2023-08-24T14:05:38;8.93;;;5.20;;
7359;SDS011;3720;48.274;7.796;2023-08-24T14:08:11;8.90;;;5.40;;
7359;SDS011;3720;48.274;7.796;2023-08-24T14:10:43;8.25;;;5.15;;
7359;SDS011;3720;48.274;7.796;2023-08-24T14:13:20;8.43;;;5.70;;
7359;SDS011;3720;48.274;7.796;2023-08-24T14:15:52;8.65;;;5.40;;
7359;SDS011;3720;48.274;7.796;2023-08-24T14:18:24;7.18;;;5.38;;
7359;SDS011;3720;48.274;7.796;2023-08-24T14:20:55;9.85;;;5.40;;
7359;SDS011;3720;48.274;7.796;2023-08-24T14:23:27;8.38;;;5.10;;
7359;SDS011;3720;48.274;7.796;2023-08-24T14:25:59;9.55;;;5.30;;
7359;SDS011;3720;48.274;7.796;2023-08-24T14:31:30;6.53;;;4.80;;
7359;SDS011;3720;48.274;7.796;2023-08-24T14:34:02;10.00;;;4.70;;
7359;SDS011;3720;48.274;7.796;2023-08-24T14:36:34;9.57;;;5.00;;
7359;SDS011;3720;48.274;7.796;2023-08-24T14:39:06;9.88;;;4.80;;
7359;SDS011;3720;48.274;7.796;2023-08-24T14:41:38;9.60;;;4.60;;
7359;SDS011;3720;48.274;7.796;2023-08-24T14:44:10;6.20;;;4.40;;
7359;SDS011;3720;48.274;7.796;2023-08-24T14:46:43;10.48;;;4.80;;
7359;SDS011;3720;48.274;7.796;2023-08-24T14:49:15;14.57;;;4.82;;
7359;SDS011;3720;48.274;7.796;2023-08-24T14:51:48;8.77;;;5.03;;
7359;SDS011;3720;48.274;7.796;2023-08-24T14:54:20;11.80;;;5.40;;
7359;SDS011;3720;48.274;7.796;2023-08-24T14:56:52;9.23;;;5.10;;
7359;SDS011;3720;48.274;7.796;2023-08-24T14:59:24;7.75;;;4.88;;
7359;SDS011;3720;48.274;7.796;2023-08-24T15:01:58;11.77;;;5.15;;
7359;SDS011;3720;48.274;7.796;2023-08-24T15:04:30;8.88;;;5.00;;
7359;SDS011;3720;48.274;7.796;2023-08-24T15:07:03;10.05;;;5.63;;
7359;SDS011;3720;48.274;7.796;2023-08-24T15:09:35;7.97;;;5.30;;
7359;SDS011;3720;48.274;7.796;2023-08-24T15:12:07;8.55;;;5.50;;
7359;SDS011;3720;48.274;7.796;2023-08-24T15:14:45;10.32;;;5.53;;
7359;SDS011;3720;48.274;7.796;2023-08-24T15:17:30;9.25;;;5.63;;
7359;SDS011;3720;48.274;7.796;2023-08-24T15:20:02;9.40;;;5.40;;
7359;SDS011;3720;48.274;7.796;2023-08-24T15:22:36;7.00;;;5.20;;
7359;SDS011;3720;48.274;7.796;2023-08-24T15:25:08;7.78;;;4.90;;
7359;SDS011;3720;48.274;7.796;2023-08-24T15:27:40;8.23;;;4.75;;
7359;SDS011;3720;48.274;7.796;2023-08-24T15:30:12;11.63;;;4.78;;
7359;SDS011;3720;48.274;7.796;2023-08-24T15:32:46;9.02;;;4.68;;
7359;SDS011;3720;48.274;7.796;2023-08-24T15:35:18;9.52;;;5.00;;
7359;SDS011;3720;48.274;7.796;2023-08-24T15:37:49;7.47;;;4.70;;
7359;SDS011;3720;48.274;7.796;2023-08-24T15:40:21;8.07;;;5.20;;
7359;SDS011;3720;48.274;7.796;2023-08-24T15:42:53;7.90;;;5.07;;
7359;SDS011;3720;48.274;7.796;2023-08-24T15:45:25;5.80;;;4.80;;
7359;SDS011;3720;48.274;7.796;2023-08-24T15:48:00;7.40;;;4.90;;
7359;SDS011;3720;48.274;7.796;2023-08-24T15:50:32;6.03;;;4.80;;
7359;SDS011;3720;48.274;7.796;2023-08-24T15:53:04;6.60;;;4.90;;